Time;durP1;ratioP1;P1;durP2;ratioP2;P2;SDS_P1;SDS_P2;PMS_P1;PMS_P2;Temp;Humidity;BMP_temperature;BMP_pressure;BME280_temperature;BME280_humidity;BME280_pressure;Samples;Min_cycle;Max_cycle;Signal;HPM_P1;HPM_P2
2023/12/26 00:01:27;;;;;;;14.80;6.00;;;;;;;6.22;59.63;94060.72;5083030;28;20082;-78
2023/12/26 00:03:52;;;;;;;17.58;6.63;;;;;;;6.19;60.07;94063.94;5082939;28;20036;-78
2023/12/26 00:06:21;;;;;;;19.67;5.68;;;;;;;6.19;59.90;94061.28;5082937;28;20354;-79
2023/12/26 00:08:47;;;;;;;21.60;5.97;;;;;;;6.21;59.99;94059.16;5083253;28;20119;-78
2023/12/26 00:11:13;;;;;;;15.52;5.75;;;;;;;6.20;60.45;94049.63;5083345;28;20020;-78
2023/12/26 00:13:38;;;;;;;16.10;5.97;;;;;;;6.22;60.35;94052.78;5081980;28;20038;-78
2023/12/26 00:16:04;;;;;;;14.32;5.28;;;;;;;6.16;60.52;94072.41;5083031;28;20062;-77
2023/12/26 00:18:29;;;;;;;13.18;5.32;;;;;;;6.19;60.16;94048.06;5083346;28;20016;-78
2023/12/26 00:20:56;;;;;;;15.05;5.25;;;;;;;6.19;60.16;94057.88;5083060;28;20087;-78
2023/12/26 00:23:22;;;;;;;14.48;4.97;;;;;;;6.19;60.18;94061.28;5083066;28;20025;-78
2023/12/26 00:25:47;;;;;;;14.70;4.80;;;;;;;6.19;60.14;94063.94;5083245;28;20114;-78
2023/12/26 00:28:14;;;;;;;14.48;4.75;;;;;;;6.19;60.15;94066.59;5083279;28;20036;-78
2023/12/26 00:30:40;;;;;;;18.25;5.70;;;;;;;6.22;60.16;94070.53;5083016;28;20024;-78
2023/12/26 00:33:06;;;;;;;14.40;5.22;;;;;;;6.23;60.06;94067.59;5083093;28;20307;-78
2023/12/26 00:35:31;;;;;;;14.70;5.55;;;;;;;6.21;60.05;94075.03;5083006;28;20029;-78
2023/12/26 00:37:58;;;;;;;16.65;5.38;;;;;;;6.18;60.40;94078.22;5083041;28;20044;-78
2023/12/26 00:40:24;;;;;;;11.52;4.95;;;;;;;6.20;60.23;94096.47;5082063;28;20083;-78
2023/12/26 00:42:49;;;;;;;20.35;6.07;;;;;;;6.21;60.39;94098.84;5083113;28;20211;-78
2023/12/26 00:45:15;;;;;;;10.23;5.18;;;;;;;6.29;60.61;94099.31;5087081;28;20046;-78
2023/12/26 00:47:40;;;;;;;20.70;5.55;;;;;;;6.27;60.75;94091.66;5087368;28;20027;-77
2023/12/26 00:50:05;;;;;;;16.27;5.10;;;;;;;6.27;60.76;94090.84;5087016;28;20052;-78
2023/12/26 00:52:34;;;;;;;13.00;5.32;;;;;;;6.31;60.66;94082.09;5085775;28;20021;-79
2023/12/26 00:54:59;;;;;;;15.30;4.88;;;;;;;6.32;60.62;94093.47;5086546;28;20095;-78
2023/12/26 00:57:25;;;;;;;12.43;5.00;;;;;;;6.34;60.64;94101.91;5086779;28;20394;-78
2023/12/26 00:59:50;;;;;;;16.40;5.30;;;;;;;6.34;60.45;94101.91;5086413;28;20036;-79
2023/12/26 01:02:16;;;;;;;10.55;5.35;;;;;;;6.32;60.60;94101.41;5086313;28;20049;-79
2023/12/26 01:04:47;;;;;;;13.57;4.97;;;;;;;6.31;60.90;94097.97;5086249;28;20020;-79
2023/12/26 01:07:13;;;;;;;14.43;5.53;;;;;;;6.31;60.84;94121.00;5086286;28;20040;-78
2023/12/26 01:09:39;;;;;;;12.00;5.13;;;;;;;6.34;60.95;94117.78;5086320;28;20064;-79
2023/12/26 01:12:05;;;;;;;13.85;5.50;;;;;;;6.34;60.68;94120.44;5086335;28;20028;-79
2023/12/26 01:14:30;;;;;;;14.30;5.82;;;;;;;6.30;61.01;94103.53;5086185;28;20306;-79
2023/12/26 01:16:56;;;;;;;13.25;4.57;;;;;;;6.18;61.38;94102.03;5086507;28;20111;-79
2023/12/26 01:19:21;;;;;;;15.20;5.60;;;;;;;6.10;61.93;94092.06;5086308;28;20077;-79
2023/12/26 01:21:46;;;;;;;17.73;5.88;;;;;;;6.11;61.99;94098.94;5086068;28;20036;-79
2023/12/26 01:24:12;;;;;;;18.70;4.82;;;;;;;6.11;61.88;94106.88;5085813;28;20047;-78
2023/12/26 01:26:37;;;;;;;12.68;4.72;;;;;;;6.05;61.93;94094.78;5086046;28;20040;-78
2023/12/26 01:29:04;;;;;;;17.35;5.47;;;;;;;6.03;62.06;94110.91;5085779;28;20040;-78
2023/12/26 01:31:33;;;;;;;16.15;5.55;;;;;;;5.99;61.90;94090.59;5085837;28;20265;-78
2023/12/26 01:33:58;;;;;;;13.88;5.78;;;;;;;5.98;61.94;94094.28;5085853;28;20236;-78
2023/12/26 01:36:24;;;;;;;17.23;5.55;;;;;;;5.96;61.96;94096.44;5085874;28;20023;-78
2023/12/26 01:38:49;;;;;;;16.23;6.30;;;;;;;5.92;62.21;94092.72;5085682;28;20016;-78
2023/12/26 01:41:15;;;;;;;20.98;7.00;;;;;;;5.91;62.33;94099.88;5085501;28;20051;-78
2023/12/26 01:43:40;;;;;;;17.33;6.90;;;;;;;5.92;62.58;94100.66;5085469;28;20020;-77
2023/12/26 01:46:06;;;;;;;17.35;6.65;;;;;;;5.92;62.57;94100.66;5085608;28;20012;-77
2023/12/26 01:48:32;;;;;;;14.80;5.93;;;;;;;5.94;62.67;94099.34;5085464;28;20017;-77
2023/12/26 01:51:00;;;;;;;19.23;5.40;;;;;;;5.96;62.35;94107.00;5085578;28;20043;-77
2023/12/26 01:53:26;;;;;;;19.73;6.47;;;;;;;5.94;62.28;94109.94;5085688;28;20019;-77
2023/12/26 01:55:52;;;;;;;16.00;5.72;;;;;;;5.87;62.47;94103.38;5085280;28;20223;-78
2023/12/26 01:58:17;;;;;;;14.73;5.85;;;;;;;5.86;62.86;94109.72;5085326;28;20021;-77
2023/12/26 02:00:42;;;;;;;12.20;5.95;;;;;;;5.86;62.64;94107.84;5084986;28;20047;-78
2023/12/26 02:03:08;;;;;;;20.02;6.00;;;;;;;5.79;62.85;94112.69;5085012;28;20020;-78
2023/12/26 02:05:33;;;;;;;13.40;5.68;;;;;;;5.70;62.67;94104.56;5085199;28;20016;-78
2023/12/26 02:07:59;;;;;;;13.20;5.95;;;;;;;5.72;62.49;94107.72;5085057;28;20021;-77
2023/12/26 02:10:25;;;;;;;15.60;5.63;;;;;;;5.68;62.40;94111.97;5085436;28;20016;-78
2023/12/26 02:12:50;;;;;;;21.48;5.72;;;;;;;5.65;62.76;94112.50;5084935;28;20318;-78
2023/12/26 02:15:16;;;;;;;16.85;5.30;;;;;;;5.66;62.67;94106.16;5085084;28;20040;-78
2023/12/26 02:17:43;;;;;;;14.90;4.85;;;;;;;5.63;62.77;94101.41;5084983;28;20052;-79
2023/12/26 02:20:10;;;;;;;11.93;5.03;;;;;;;5.60;62.75;94100.13;5085012;28;20028;-78
2023/12/26 02:22:35;;;;;;;10.35;3.97;;;;;;;5.57;62.73;94095.38;5085656;28;20269;-78
2023/12/26 02:25:01;;;;;;;10.95;3.90;;;;;;;5.58;62.43;94096.97;5085432;28;20033;-78
2023/12/26 02:27:29;;;;;;;11.15;4.13;;;;;;;5.62;62.37;94091.91;5085169;28;20203;-78
2023/12/26 02:29:57;;;;;;;9.65;4.15;;;;;;;5.63;62.65;94094.25;5084045;28;20024;-78
2023/12/26 02:32:25;;;;;;;9.50;4.07;;;;;;;5.67;62.10;94086.56;5085099;28;20082;-79
2023/12/26 02:34:55;;;;;;;11.20;3.55;;;;;;;5.70;62.04;94098.44;5085001;28;20073;-78
2023/12/26 02:37:22;;;;;;;10.07;4.15;;;;;;;5.71;61.82;94100.03;5085073;28;20024;-78
2023/12/26 02:39:50;;;;;;;13.90;3.95;;;;;;;5.70;61.52;94096.63;5085080;28;20028;-78
2023/12/26 02:42:17;;;;;;;10.80;3.67;;;;;;;5.71;61.07;94100.81;5084633;28;20259;-78
2023/12/26 02:44:42;;;;;;;9.30;3.42;;;;;;;5.74;60.75;94092.34;5084930;28;20033;-78
2023/12/26 02:47:08;;;;;;;11.93;3.55;;;;;;;5.73;60.73;94093.41;5084908;28;20256;-78
2023/12/26 02:49:34;;;;;;;10.55;3.25;;;;;;;5.79;60.57;94102.88;5084954;28;20269;-78
2023/12/26 02:51:59;;;;;;;9.90;3.42;;;;;;;5.81;60.22;94100.75;5084819;28;20020;-78
2023/12/26 02:54:25;;;;;;;11.38;3.85;;;;;;;5.81;60.59;94095.47;5084666;28;20016;-78
2023/12/26 02:56:50;;;;;;;6.20;3.03;;;;;;;5.78;60.29;94098.66;5084991;28;20021;-79
2023/12/26 02:59:16;;;;;;;8.68;3.60;;;;;;;5.80;60.48;94101.81;5083572;28;20382;-78
2023/12/26 03:01:44;;;;;;;7.25;2.40;;;;;;;5.79;60.38;94100.22;5083522;28;20075;-79
2023/12/26 03:04:10;;;;;;;5.47;2.33;;;;;;;5.76;60.24;94105.28;5084519;28;20040;-78
2023/12/26 03:06:35;;;;;;;11.30;3.20;;;;;;;5.77;59.89;94114.81;5082262;28;20096;-78
2023/12/26 03:09:01;;;;;;;8.90;3.40;;;;;;;5.79;60.09;94113.47;5082835;28;20031;-78
2023/12/26 03:11:27;;;;;;;13.27;3.60;;;;;;;5.79;60.48;94107.38;5084063;28;20024;-77
2023/12/26 03:13:52;;;;;;;8.30;3.45;;;;;;;5.73;60.65;94119.84;5083760;28;20027;-78
2023/12/26 03:16:20;;;;;;;11.30;3.30;;;;;;;5.71;60.49;94110.63;5084247;28;20051;-78
2023/12/26 03:18:45;;;;;;;10.00;3.05;;;;;;;5.69;60.52;94118.81;5084162;28;20438;-78
2023/12/26 03:21:11;;;;;;;11.00;3.22;;;;;;;5.63;60.59;94107.47;5084063;28;20044;-79
2023/12/26 03:23:36;;;;;;;9.98;3.88;;;;;;;5.54;60.93;94118.94;5082817;28;20048;-80
2023/12/26 03:26:02;;;;;;;11.63;3.25;;;;;;;5.54;61.23;94116.31;5083912;28;20343;-77
2023/12/26 03:28:28;;;;;;;9.70;3.28;;;;;;;5.54;61.16;94121.59;5083857;28;20020;-78
2023/12/26 03:30:53;;;;;;;8.27;3.67;;;;;;;5.53;61.42;94115.50;5084172;28;20317;-78
2023/12/26 03:33:19;;;;;;;9.15;2.95;;;;;;;5.46;61.37;94120.31;5083973;28;20020;-79
2023/12/26 03:35:44;;;;;;;12.52;3.10;;;;;;;5.45;61.45;94113.44;5084046;28;20048;-78
2023/12/26 03:38:10;;;;;;;6.25;3.00;;;;;;;5.42;61.53;94116.63;5083350;28;20337;-78
2023/12/26 03:40:35;;;;;;;5.65;2.55;;;;;;;5.38;62.07;94118.25;5083224;28;20051;-78
2023/12/26 03:43:01;;;;;;;10.93;3.50;;;;;;;5.29;62.33;94118.03;5083713;28;20291;-78
2023/12/26 03:45:28;;;;;;;11.05;3.22;;;;;;;5.27;62.45;94111.44;5084039;28;20342;-78
2023/12/26 03:47:53;;;;;;;15.30;3.88;;;;;;;5.27;62.51;94117.53;5083659;28;20032;-78
2023/12/26 03:50:20;;;;;;;10.02;4.25;;;;;;;5.25;62.81;94109.06;5082455;28;20091;-78
2023/12/26 03:52:46;;;;;;;12.07;3.58;;;;;;;5.25;62.54;94122.28;5083630;28;20335;-78
2023/12/26 03:55:12;;;;;;;21.58;5.70;;;;;;;5.28;62.49;94118.31;5083367;28;20023;-78
2023/12/26 03:57:39;;;;;;;14.60;5.40;;;;;;;5.28;62.23;94110.38;5083551;28;20102;-78
2023/12/26 04:00:05;;;;;;;16.38;7.07;;;;;;;5.33;61.91;94120.91;5083385;28;20028;-78
2023/12/26 04:02:31;;;;;;;13.30;5.13;;;;;;;5.37;61.80;94119.28;5083228;28;20052;-78
2023/12/26 04:04:56;;;;;;;14.15;5.88;;;;;;;5.37;61.96;94116.66;5083487;28;20036;-78
2023/12/26 04:07:22;;;;;;;14.32;5.38;;;;;;;5.36;62.03;94121.16;5083201;28;20020;-77
2023/12/26 04:09:47;;;;;;;15.00;4.05;;;;;;;5.37;62.16;94128.03;5083461;28;20663;-78
2023/12/26 04:12:13;;;;;;;11.68;4.03;;;;;;;5.35;62.39;94124.88;5081763;28;20073;-78
2023/12/26 04:14:38;;;;;;;12.15;4.53;;;;;;;5.32;62.39;94114.84;5082930;28;20017;-78
2023/12/26 04:17:04;;;;;;;26.25;6.38;;;;;;;5.34;62.54;94133.06;5081754;28;20025;-78
2023/12/26 04:19:29;;;;;;;17.63;5.55;;;;;;;5.29;62.84;94125.16;5081868;28;20114;-78
2023/12/26 04:21:55;;;;;;;12.82;5.45;;;;;;;5.27;62.58;94136.03;5082823;28;20023;-78
2023/12/26 04:24:20;;;;;;;17.10;7.43;;;;;;;5.28;62.44;94139.44;5082643;28;20027;-79
2023/12/26 04:26:45;;;;;;;18.77;8.30;;;;;;;5.28;62.71;94145.50;5082560;28;20025;-78
2023/12/26 04:29:11;;;;;;;24.15;7.38;;;;;;;5.26;62.70;94131.78;5082709;28;20016;-78
2023/12/26 04:31:36;;;;;;;19.73;7.68;;;;;;;5.24;62.65;94133.91;5082612;28;20247;-78
2023/12/26 04:34:02;;;;;;;25.80;8.38;;;;;;;5.24;62.49;94144.47;5082641;28;20020;-78
2023/12/26 04:36:27;;;;;;;23.00;9.00;;;;;;;5.23;62.57;94142.88;5083244;28;20372;-78
2023/12/26 04:38:52;;;;;;;17.95;7.65;;;;;;;5.23;62.65;94142.88;5081785;28;20032;-79
2023/12/26 04:41:18;;;;;;;20.80;7.80;;;;;;;5.26;62.72;94147.63;5083200;28;20024;-79
2023/12/26 04:43:43;;;;;;;22.08;6.97;;;;;;;5.22;62.70;94146.59;5081819;28;20218;-79
2023/12/26 04:46:17;;;;;;;20.33;7.38;;;;;;;5.23;62.83;94148.16;5082979;28;20028;-79
2023/12/26 04:48:42;;;;;;;13.77;6.25;;;;;;;5.22;62.93;94143.97;5083135;28;20031;-79
2023/12/26 04:51:07;;;;;;;18.65;6.97;;;;;;;5.19;63.10;94144.50;5082840;28;20024;-79
2023/12/26 04:53:33;;;;;;;22.45;6.57;;;;;;;5.17;63.33;94147.44;5082853;28;20013;-78
2023/12/26 04:55:58;;;;;;;19.60;7.25;;;;;;;5.18;63.46;94148.22;5082374;28;20031;-79
2023/12/26 04:58:24;;;;;;;16.70;6.10;;;;;;;5.14;63.43;94147.16;5082595;28;20028;-78
2023/12/26 05:00:49;;;;;;;20.27;6.00;;;;;;;5.08;63.70;94143.75;5082175;28;20103;-79
2023/12/26 05:03:14;;;;;;;19.92;6.97;;;;;;;5.07;63.88;94144.03;5082476;28;20020;-79
2023/12/26 05:05:40;;;;;;;15.90;7.15;;;;;;;5.02;64.07;94150.91;5082339;28;20218;-79
2023/12/26 05:08:05;;;;;;;17.55;6.45;;;;;;;5.00;64.06;94146.97;5082239;28;20039;-79
2023/12/26 05:10:33;;;;;;;18.67;6.20;;;;;;;5.03;64.16;94144.56;5082286;28;20306;-79
2023/12/26 05:12:58;;;;;;;12.55;5.30;;;;;;;5.01;64.04;94151.97;5082366;28;20024;-79
2023/12/26 05:15:24;;;;;;;11.60;5.53;;;;;;;4.98;64.30;94152.50;5082487;28;20044;-79
2023/12/26 05:17:49;;;;;;;16.30;6.30;;;;;;;4.90;64.42;94153.06;5082433;28;20024;-79
2023/12/26 05:20:15;;;;;;;11.90;4.95;;;;;;;4.84;64.59;94143.59;5081969;28;20024;-79
2023/12/26 05:22:41;;;;;;;11.27;4.43;;;;;;;4.83;64.63;94136.72;5082067;28;20031;-79
2023/12/26 05:25:10;;;;;;;11.02;4.05;;;;;;;4.80;64.58;94134.63;5082076;28;20032;-79
2023/12/26 05:27:36;;;;;;;11.80;3.90;;;;;;;4.78;64.72;94142.03;5082328;28;20028;-79
2023/12/26 05:30:01;;;;;;;9.70;4.85;;;;;;;4.72;64.71;94132.53;5083701;28;20043;-79
2023/12/26 05:32:26;;;;;;;12.35;4.10;;;;;;;4.68;64.92;94131.50;5086101;28;20040;-78
2023/12/26 05:34:55;;;;;;;10.35;3.92;;;;;;;4.67;64.88;94141.28;5085807;28;20021;-79
2023/12/26 05:37:21;;;;;;;10.82;4.57;;;;;;;4.62;64.90;94149.22;5085526;28;20028;-78
2023/12/26 05:39:47;;;;;;;13.10;4.70;;;;;;;4.58;65.13;94145.50;5085832;28;20035;-79
2023/12/26 05:42:12;;;;;;;9.55;4.30;;;;;;;4.55;65.48;94141.56;5085700;28;20028;-79
2023/12/26 05:44:39;;;;;;;16.15;5.55;;;;;;;4.38;65.79;94144.50;5085662;28;20063;-78
2023/12/26 05:47:05;;;;;;;15.80;4.43;;;;;;;4.37;66.12;94150.81;5085538;28;20032;-78
2023/12/26 05:49:31;;;;;;;10.73;4.53;;;;;;;4.37;66.26;94148.19;5085401;28;20029;-78
2023/12/26 05:51:58;;;;;;;18.23;5.57;;;;;;;4.27;66.58;94140.28;5085639;28;20035;-78
2023/12/26 05:54:24;;;;;;;17.00;6.30;;;;;;;4.32;66.70;94150.06;5085589;28;20020;-78
2023/12/26 05:56:49;;;;;;;13.32;5.53;;;;;;;4.31;66.88;94159.81;5085218;28;20346;-78
2023/12/26 05:59:15;;;;;;;15.15;5.32;;;;;;;4.22;66.89;94156.13;5085336;28;20024;-78
2023/12/26 06:01:47;;;;;;;13.10;5.25;;;;;;;4.18;67.35;94152.44;5083894;28;20040;-78
2023/12/26 06:04:12;;;;;;;15.75;6.03;;;;;;;4.24;67.14;94158.53;5085082;28;20024;-78
2023/12/26 06:06:38;;;;;;;12.20;5.32;;;;;;;4.27;67.06;94161.41;5085113;28;20051;-78
2023/12/26 06:09:03;;;;;;;16.45;5.22;;;;;;;4.20;67.52;94159.03;5085181;28;20326;-78
2023/12/26 06:11:28;;;;;;;15.85;5.68;;;;;;;4.25;67.48;94160.88;5085129;28;20066;-78
2023/12/26 06:13:54;;;;;;;14.50;5.60;;;;;;;4.24;67.55;94167.22;5084999;28;20188;-80
2023/12/26 06:16:20;;;;;;;15.90;6.15;;;;;;;4.30;67.57;94170.66;5084907;28;20319;-79
2023/12/26 06:18:45;;;;;;;19.10;5.72;;;;;;;4.32;67.75;94160.63;5085026;28;20028;-78
2023/12/26 06:21:11;;;;;;;14.95;5.55;;;;;;;4.33;67.91;94165.59;5085010;28;20013;-78
2023/12/26 06:23:36;;;;;;;14.27;5.30;;;;;;;4.27;68.17;94169.31;5084728;28;20020;-79
2023/12/26 06:26:02;;;;;;;16.65;4.80;;;;;;;4.33;68.16;94170.09;5084799;28;20061;-79
2023/12/26 06:28:27;;;;;;;17.58;7.60;;;;;;;4.30;68.29;94170.66;5084963;28;20047;-78
2023/12/26 06:30:52;;;;;;;18.90;7.28;;;;;;;4.29;68.61;94161.91;5084871;28;20325;-78
2023/12/26 06:33:19;;;;;;;16.63;6.80;;;;;;;4.35;68.61;94179.34;5084642;28;20024;-78
2023/12/26 06:35:45;;;;;;;17.85;6.80;;;;;;;4.34;68.78;94172.50;5084741;28;20108;-78
2023/12/26 06:38:13;;;;;;;20.10;6.70;;;;;;;4.38;69.08;94176.19;5084750;28;20024;-78
2023/12/26 06:40:42;;;;;;;14.98;5.68;;;;;;;4.49;68.50;94176.94;5084103;28;20335;-78
2023/12/26 06:43:10;;;;;;;18.65;7.05;;;;;;;4.57;67.87;94179.03;5084228;28;20027;-78
2023/12/26 06:45:35;;;;;;;20.95;7.68;;;;;;;4.63;67.73;94177.19;5084526;28;20203;-78
2023/12/26 06:48:01;;;;;;;12.80;5.25;;;;;;;4.74;67.16;94172.66;5084412;28;20020;-78
2023/12/26 06:50:27;;;;;;;13.38;6.07;;;;;;;4.84;66.73;94177.91;5084507;28;20020;-78
2023/12/26 06:52:52;;;;;;;17.98;6.30;;;;;;;4.91;66.34;94173.16;5084451;28;20028;-78
2023/12/26 06:55:17;;;;;;;17.95;6.68;;;;;;;5.01;65.82;94177.63;5084501;28;20030;-78
2023/12/26 06:57:43;;;;;;;14.93;6.00;;;;;;;5.08;66.17;94180.75;5084240;28;20024;-78
2023/12/26 07:00:09;;;;;;;18.50;7.03;;;;;;;5.10;66.00;94175.19;5083926;28;20020;-78
2023/12/26 07:02:34;;;;;;;20.55;7.13;;;;;;;5.18;65.45;94183.34;5084189;28;20091;-79
2023/12/26 07:05:00;;;;;;;19.02;6.57;;;;;;;5.28;64.84;94190.44;5083953;28;20091;-79
2023/12/26 07:07:25;;;;;;;13.82;5.90;;;;;;;5.33;64.79;94189.63;5083957;28;20074;-78
2023/12/26 07:09:51;;;;;;;14.73;6.47;;;;;;;5.33;64.38;94184.34;5084117;28;20036;-78
2023/12/26 07:12:16;;;;;;;13.98;5.22;;;;;;;5.35;64.51;94190.97;5083873;28;20027;-79
2023/12/26 07:14:42;;;;;;;13.35;6.03;;;;;;;5.41;64.47;94192.50;5083806;28;20023;-79
2023/12/26 07:17:07;;;;;;;15.43;5.57;;;;;;;5.49;64.34;94203.56;5083798;28;20306;-79
2023/12/26 07:19:33;;;;;;;12.18;5.40;;;;;;;5.56;63.84;94204.84;5083925;28;20070;-79
2023/12/26 07:21:58;;;;;;;14.63;6.57;;;;;;;5.48;65.23;94202.78;5083847;28;20024;-79
2023/12/26 07:24:24;;;;;;;14.80;6.55;;;;;;;5.34;66.00;94202.56;5083828;28;20020;-79
2023/12/26 07:26:49;;;;;;;13.10;5.93;;;;;;;5.46;66.14;94198.84;5083810;28;20058;-79
2023/12/26 07:29:14;;;;;;;17.08;7.78;;;;;;;5.55;65.98;94223.63;5083698;28;20016;-79
2023/12/26 07:31:40;;;;;;;16.88;6.82;;;;;;;5.60;65.91;94199.81;5083668;28;20036;-79
2023/12/26 07:34:08;;;;;;;13.15;5.75;;;;;;;5.64;65.57;94206.13;5083753;28;20024;-79
2023/12/26 07:36:34;;;;;;;12.30;6.47;;;;;;;5.71;64.87;94209.25;5083936;28;20029;-79
2023/12/26 07:39:00;;;;;;;19.60;6.90;;;;;;;5.80;64.34;94205.00;5083599;28;20032;-79
2023/12/26 07:41:25;;;;;;;19.02;6.55;;;;;;;5.87;63.43;94201.25;5083593;28;20062;-79
2023/12/26 07:43:52;;;;;;;17.67;7.88;;;;;;;5.89;63.14;94207.06;5083591;28;20337;-79
2023/12/26 07:46:18;;;;;;;19.13;7.60;;;;;;;5.96;63.25;94204.91;5083494;28;20114;-79
2023/12/26 07:48:43;;;;;;;17.45;8.40;;;;;;;6.05;63.37;94205.13;5083621;28;20028;-79
2023/12/26 07:51:12;;;;;;;17.60;7.43;;;;;;;6.12;63.14;94211.66;5083870;28;20016;-77
2023/12/26 07:53:37;;;;;;;15.43;7.15;;;;;;;6.17;62.27;94219.59;5082406;28;20091;-78
2023/12/26 07:56:03;;;;;;;17.48;7.07;;;;;;;6.11;62.68;94209.31;5083598;28;20073;-78
2023/12/26 07:58:28;;;;;;;15.13;7.30;;;;;;;6.20;62.77;94213.72;5082050;28;20024;-78
2023/12/26 08:00:54;;;;;;;21.17;7.80;;;;;;;6.29;62.90;94219.25;5083606;28;20051;-79
2023/12/26 08:03:19;;;;;;;22.05;7.68;;;;;;;6.28;62.36;94217.63;5083716;28;20032;-79
2023/12/26 08:05:44;;;;;;;24.45;7.40;;;;;;;6.36;62.31;94216.25;5083522;28;20027;-78
2023/12/26 08:08:11;;;;;;;24.50;9.05;;;;;;;6.42;62.49;94210.63;5083387;28;20016;-78
2023/12/26 08:10:36;;;;;;;20.15;8.63;;;;;;;6.43;62.96;94206.94;5083589;28;20061;-78
2023/12/26 08:13:02;;;;;;;22.35;9.90;;;;;;;6.53;62.59;94208.69;5083507;28;20051;-78
2023/12/26 08:15:28;;;;;;;24.27;9.93;;;;;;;6.49;62.22;94205.00;5083304;28;20020;-77
2023/12/26 08:17:53;;;;;;;22.45;9.73;;;;;;;6.59;62.45;94215.53;5083073;28;20028;-78
2023/12/26 08:20:18;;;;;;;20.67;8.45;;;;;;;6.67;62.36;94211.47;5083151;28;20035;-78
2023/12/26 08:22:44;;;;;;;21.98;9.40;;;;;;;6.80;61.59;94215.34;5083198;28;20033;-78
2023/12/26 08:25:09;;;;;;;27.73;10.18;;;;;;;6.89;61.15;94218.94;5083004;28;20020;-77
2023/12/26 08:27:36;;;;;;;28.00;9.98;;;;;;;6.99;60.94;94204.81;5083191;28;20219;-78
2023/12/26 08:30:02;;;;;;;22.40;11.05;;;;;;;7.09;60.70;94207.34;5083235;28;20049;-78
2023/12/26 08:32:27;;;;;;;24.65;9.70;;;;;;;7.19;60.43;94212.53;5083493;28;20016;-78
2023/12/26 08:34:53;;;;;;;26.88;10.68;;;;;;;7.27;60.44;94219.09;5083134;28;20015;-78
2023/12/26 08:37:19;;;;;;;30.80;11.30;;;;;;;7.36;60.56;94211.28;5083274;28;20020;-78
2023/12/26 08:39:44;;;;;;;32.95;11.55;;;;;;;7.46;59.60;94221.00;5083235;28;20027;-78
2023/12/26 08:42:10;;;;;;;27.67;12.32;;;;;;;7.54;59.63;94223.00;5082697;28;20016;-78
2023/12/26 08:44:35;;;;;;;28.50;10.88;;;;;;;7.59;59.64;94214.97;5082941;28;20027;-78
2023/12/26 08:47:05;;;;;;;25.50;11.68;;;;;;;7.70;59.25;94210.34;5083192;28;20330;-78
2023/12/26 08:49:30;;;;;;;30.02;11.80;;;;;;;7.78;58.87;94215.00;5083032;28;20032;-78
2023/12/26 08:51:56;;;;;;;39.47;11.55;;;;;;;7.79;59.05;94203.31;5082959;28;20023;-78
2023/12/26 08:54:21;;;;;;;34.10;11.70;;;;;;;7.86;59.10;94206.41;5082817;28;20054;-78
2023/12/26 08:56:47;;;;;;;33.88;11.77;;;;;;;7.90;58.34;94203.97;5082913;28;20016;-80
2023/12/26 08:59:12;;;;;;;29.05;11.38;;;;;;;7.95;58.09;94206.53;5082729;28;20096;-78
2023/12/26 09:01:38;;;;;;;33.35;11.45;;;;;;;7.95;58.49;94204.66;5082802;28;20219;-78
2023/12/26 09:04:04;;;;;;;24.75;11.95;;;;;;;7.99;58.24;94204.88;5082978;28;20327;-78
2023/12/26 09:06:29;;;;;;;32.03;11.20;;;;;;;8.03;57.98;94204.03;5086989;28;20382;-78
2023/12/26 09:08:54;;;;;;;30.25;12.05;;;;;;;7.76;58.88;94203.91;5087156;28;20107;-78
2023/12/26 09:11:20;;;;;;;28.55;12.57;;;;;;;7.89;58.81;94202.38;5086601;28;20259;-79
2023/12/26 09:13:46;;;;;;;23.05;11.93;;;;;;;8.00;58.67;94203.81;5086924;28;20029;-79
2023/12/26 09:16:11;;;;;;;24.70;11.10;;;;;;;8.12;58.26;94195.41;5086788;28;20040;-78
2023/12/26 09:18:37;;;;;;;27.80;11.25;;;;;;;8.23;57.49;94196.84;5086896;28;20020;-79
2023/12/26 09:21:03;;;;;;;30.40;11.77;;;;;;;8.30;57.77;94197.25;5086795;28;20028;-79
2023/12/26 09:23:29;;;;;;;28.38;11.38;;;;;;;8.40;57.70;94180.34;5086854;28;20051;-78
2023/12/26 09:25:54;;;;;;;21.27;10.23;;;;;;;8.48;57.75;94177.06;5086939;28;20028;-78
2023/12/26 09:28:19;;;;;;;27.02;10.93;;;;;;;8.55;57.04;94185.47;5086210;28;20032;-78
2023/12/26 09:30:45;;;;;;;18.25;9.15;;;;;;;8.67;56.35;94169.06;5086543;28;20028;-79
2023/12/26 09:33:10;;;;;;;19.17;9.80;;;;;;;8.80;56.08;94168.28;5086808;28;20038;-79
2023/12/26 09:35:36;;;;;;;16.60;8.73;;;;;;;8.92;55.75;94165.13;5086570;28;20031;-79
2023/12/26 09:38:01;;;;;;;21.60;8.20;;;;;;;8.96;55.42;94158.16;5086462;28;20025;-79
2023/12/26 09:40:27;;;;;;;19.42;7.90;;;;;;;9.10;54.93;94152.03;5086696;28;20024;-79
2023/12/26 09:43:01;;;;;;;20.55;7.53;;;;;;;9.21;54.60;94148.09;5086338;28;20210;-79
2023/12/26 09:45:27;;;;;;;21.88;8.00;;;;;;;9.32;53.43;94152.13;5085316;28;20032;-79
2023/12/26 09:47:53;;;;;;;10.48;5.88;;;;;;;9.39;52.82;94144.53;5086517;28;20207;-79
2023/12/26 09:50:19;;;;;;;14.15;6.32;;;;;;;9.51;53.14;94143.25;5086328;28;20040;-79
2023/12/26 09:52:56;;;;;;;14.77;5.47;;;;;;;9.62;53.00;94144.56;5086201;28;20142;-79
2023/12/26 09:55:21;;;;;;;19.33;5.55;;;;;;;9.72;52.80;94144.34;5086144;28;20030;-79
2023/12/26 09:57:47;;;;;;;10.68;5.28;;;;;;;9.82;51.68;94144.13;5085942;28;20327;-77
2023/12/26 10:00:13;;;;;;;11.63;4.57;;;;;;;9.92;51.00;94140.44;5085724;28;20048;-78
2023/12/26 10:02:40;;;;;;;19.08;5.10;;;;;;;10.04;51.38;94131.94;5085853;28;20043;-78
2023/12/26 10:05:06;;;;;;;12.35;6.22;;;;;;;10.10;51.15;94128.06;5085847;28;20036;-78
2023/12/26 10:07:31;;;;;;;12.70;5.15;;;;;;;10.21;50.20;94129.38;5085941;28;20024;-79
2023/12/26 10:09:57;;;;;;;14.70;4.47;;;;;;;10.30;50.40;94126.00;5085895;28;20044;-78
2023/12/26 10:12:27;;;;;;;20.25;5.43;;;;;;;10.38;50.32;94118.09;5085842;28;20028;-79
2023/12/26 10:15:01;;;;;;;13.25;5.63;;;;;;;10.48;49.96;94113.56;5085334;28;20062;-79
2023/12/26 10:17:27;;;;;;;13.57;5.65;;;;;;;10.55;50.02;94109.38;5084608;28;20063;-79
2023/12/26 10:19:59;;;;;;;10.98;4.88;;;;;;;10.63;49.88;94116.63;5084340;28;20103;-78
2023/12/26 10:22:25;;;;;;;17.77;6.35;;;;;;;10.71;49.68;94117.00;5085646;28;20020;-78
2023/12/26 10:24:51;;;;;;;24.98;5.40;;;;;;;10.78;49.67;94104.00;5083658;28;20028;-79
2023/12/26 10:27:17;;;;;;;14.25;5.50;;;;;;;10.89;49.53;94099.16;5085360;28;20038;-79
2023/12/26 10:29:58;;;;;;;18.98;5.35;;;;;;;10.98;49.11;94102.66;5085334;28;20027;-79
2023/12/26 10:32:25;;;;;;;15.63;6.03;;;;;;;11.06;48.72;94099.22;5085590;28;20024;-79
2023/12/26 10:34:52;;;;;;;10.35;5.28;;;;;;;11.13;48.29;94091.53;5085171;28;20024;-80
2023/12/26 10:37:21;;;;;;;15.50;5.68;;;;;;;11.23;48.31;94093.16;5085258;28;20033;-79
2023/12/26 10:39:47;;;;;;;22.15;5.68;;;;;;;11.30;47.06;94088.16;5085392;28;20323;-79
2023/12/26 10:42:15;;;;;;;13.57;5.15;;;;;;;11.40;46.72;94092.41;5085168;28;20046;-79
2023/12/26 10:44:58;;;;;;;16.13;5.47;;;;;;;11.46;46.90;94096.50;5085014;28;20044;-79
2023/12/26 10:47:26;;;;;;;20.33;5.25;;;;;;;11.52;46.64;94094.44;5083795;28;20100;-79
2023/12/26 10:49:55;;;;;;;21.77;5.25;;;;;;;11.53;46.59;94088.03;5084933;28;20255;-79
2023/12/26 10:52:23;;;;;;;12.05;4.60;;;;;;;11.50;46.00;94083.28;5084960;28;20036;-79
2023/12/26 10:54:51;;;;;;;15.20;5.43;;;;;;;11.59;45.50;94081.44;5084795;28;20041;-78
2023/12/26 10:57:18;;;;;;;17.35;5.75;;;;;;;11.68;45.88;94092.88;5084920;28;20029;-79
2023/12/26 13:51:37;;;;;;;29.08;11.30;;;;;;;13.23;42.03;93942.97;5085088;28;20039;-77
2023/12/26 13:54:03;;;;;;;32.42;10.45;;;;;;;13.05;40.25;93944.97;5086084;28;20025;-80
2023/12/26 13:56:29;;;;;;;23.38;10.07;;;;;;;12.90;40.95;93944.75;5085798;28;20338;-78
2023/12/26 13:58:54;;;;;;;24.70;10.18;;;;;;;12.78;42.06;93935.56;5085897;28;20226;-78
2023/12/26 14:01:20;;;;;;;24.90;11.18;;;;;;;12.71;41.82;93929.94;5085932;28;20329;-79
2023/12/26 14:03:52;;;;;;;33.38;14.27;;;;;;;12.64;42.02;93925.13;5085825;28;20028;-78
2023/12/26 14:06:19;;;;;;;34.57;12.63;;;;;;;12.52;42.29;93913.56;5085995;28;20072;-77
2023/12/26 14:08:50;;;;;;;28.88;12.95;;;;;;;12.45;42.64;93922.06;5085700;28;20024;-78
2023/12/26 14:11:19;;;;;;;40.90;15.50;;;;;;;12.35;43.51;93919.75;5084463;28;20070;-78
2023/12/26 14:13:45;;;;;;;43.90;16.67;;;;;;;12.30;44.40;93919.94;5085594;28;20021;-77
2023/12/26 14:16:11;;;;;;;33.78;12.73;;;;;;;12.11;44.36;93926.47;5083818;28;20032;-77
2023/12/26 14:18:37;;;;;;;28.40;11.70;;;;;;;12.01;43.66;93919.59;5085160;28;20024;-77